Time;durP1;ratioP1;P1;durP2;ratioP2;P2;SDS_P1;SDS_P2;PMS_P1;PMS_P2;Temp;Humidity;BMP_temperature;BMP_pressure;BME280_temperature;BME280_humidity;BME280_pressure;Samples;Min_cycle;Max_cycle;Signal;HPM_P1;HPM_P2
2022/11/02 00:00:20;;;;;;;;;;;;;;;;;;5028588;28;1164;-75
2022/11/02 00:02:45;;;;;;;;;;;;;;;;;;5027625;28;1914;-75
2022/11/02 00:05:11;;;;;;;;;;;;;;;;;;5013786;28;1224;-74
2022/11/02 00:07:37;;;;;;;;;;;;;;;;;;5014983;28;1111;-74
2022/11/02 00:10:02;;;;;;;;;;;;;;;;;;5015760;28;1203;-75
2022/11/02 00:12:27;;;;;;;;;;;;;;;;;;5032772;28;849;-74
2022/11/02 00:14:52;;;;;;;;;;;;;;;;;;5032939;28;916;-75
2022/11/02 00:17:18;;;;;;;;;;;;;;;;;;5033488;28;912;-75
2022/11/02 00:19:43;;;;;;;;;;;;;;;;;;5032716;28;916;-74
2022/11/02 00:22:08;;;;;;;;;;;;;;;;;;5033181;28;1957;-75
2022/11/02 00:24:34;;;;;;;;;;;;;;;;;;5031245;28;837;-75
2022/11/02 00:27:00;;;;;;;;;;;;;;;;;;5015136;28;1112;-75
2022/11/02 00:29:25;;;;;;;;;;;;;;;;;;5014903;28;1665;-75
2022/11/02 00:31:50;;;;;;;;;;;;;;;;;;5032999;28;912;-74
2022/11/02 00:34:16;;;;;;;;;;;;;;;;;;5014960;28;1197;-75
2022/11/02 00:36:41;;;;;;;;;;;;;;;;;;5014714;28;850;-74
2022/11/02 00:39:06;;;;;;;;;;;;;;;;;;5015269;28;1196;-75
2022/11/02 00:41:31;;;;;;;;;;;;;;;;;;5031075;28;1898;-74
2022/11/02 00:43:57;;;;;;;;;;;;;;;;;;5014688;28;1406;-75
2022/11/02 00:46:22;;;;;;;;;;;;;;;;;;5032529;28;892;-74
2022/11/02 00:48:47;;;;;;;;;;;;;;;;;;5014333;28;1315;-74
2022/11/02 00:51:13;;;;;;;;;;;;;;;;;;5031474;28;925;-75
2022/11/02 00:53:38;;;;;;;;;;;;;;;;;;5031015;28;790;-75
2022/11/02 00:56:04;;;;;;;;;;;;;;;;;;5031288;28;922;-75
2022/11/02 00:58:29;;;;;;;;;;;;;;;;;;5032381;28;829;-74
2022/11/02 01:00:55;;;;;;;;;;;;;;;;;;5030871;28;948;-74
2022/11/02 01:03:20;;;;;;;;;;;;;;;;;;5014626;28;1963;-74
2022/11/02 01:05:45;;;;;;;;;;;;;;;;;;5014070;28;746;-75
2022/11/02 01:08:11;;;;;;;;;;;;;;;;;;5014729;28;1236;-74
2022/11/02 01:10:36;;;;;;;;;;;;;;;;;;5013775;28;1168;-75
2022/11/02 01:13:01;;;;;;;;;;;;;;;;;;5014315;28;1468;-74
2022/11/02 01:15:27;;;;;;;;;;;;;;;;;;5030921;28;801;-74
2022/11/02 01:17:52;;;;;;;;;;;;;;;;;;5013741;28;1202;-74
2022/11/02 01:20:17;;;;;;;;;;;;;;;;;;5014632;28;706;-71
2022/11/02 01:22:43;;;;;;;;;;;;;;;;;;5013709;28;1894;-70
2022/11/02 01:25:08;;;;;;;;;;;;;;;;;;5032162;28;885;-71
2022/11/02 01:27:33;;;;;;;;;;;;;;;;;;5013820;28;902;-71
2022/11/02 01:29:58;;;;;;;;;;;;;;;;;;5014808;28;1247;-70
2022/11/02 01:32:24;;;;;;;;;;;;;;;;;;5014820;28;1041;-71
2022/11/02 01:34:49;;;;;;;;;;;;;;;;;;5014736;28;796;-71
2022/11/02 01:37:14;;;;;;;;;;;;;;;;;;5014579;28;1161;-71
2022/11/02 01:39:40;;;;;;;;;;;;;;;;;;5014426;28;1210;-70
2022/11/02 01:42:15;;;;;;;;;;;;;;;;;;5031129;28;1902;-71
2022/11/02 01:44:42;;;;;;;;;;;;;;;;;;5031390;28;921;-70
2022/11/02 01:47:13;;;;;;;;;;;;;;;;;;5014288;28;1378;-71
2022/11/02 01:49:40;;;;;;;;;;;;;;;;;;5009843;28;1454;-71
2022/11/02 01:52:08;;;;;;;;;;;;;;;;;;5010453;28;1386;-71
2022/11/02 01:54:39;;;;;;;;;;;;;;;;;;5011504;28;845;-70
2022/11/02 01:57:06;;;;;;;;;;;;;;;;;;5011757;28;845;-71
2022/11/02 01:59:36;;;;;;;;;;;;;;;;;;5009690;28;1307;-71
2022/11/02 02:02:04;;;;;;;;;;;;;;;;;;5011277;28;1887;-70
2022/11/02 02:04:31;;;;;;;;;;;;;;;;;;5010993;28;867;-70
2022/11/02 02:06:57;;;;;;;;;;;;;;;;;;5011713;28;987;-74
2022/11/02 02:09:23;;;;;;;;;;;;;;;;;;5011173;28;856;-75
2022/11/02 02:11:48;;;;;;;;;;;;;;;;;;5010532;28;837;-75
2022/11/02 02:14:15;;;;;;;;;;;;;;;;;;5026306;28;971;-75
2022/11/02 02:16:40;;;;;;;;;;;;;;;;;;5009652;28;1237;-75
2022/11/02 02:19:14;;;;;;;;;;;;;;;;;;5009437;28;722;-75
2022/11/02 02:22:09;;;;;;;;;;;;;;;;;;5010678;28;1941;-75
2022/11/02 02:24:37;;;;;;;;;;;;;;;;;;4973610;28;1105;-75
2022/11/02 02:27:08;;;;;;;;;;;;;;;;;;5009663;28;1157;-75
2022/11/02 02:29:48;;;;;;;;;;;;;;;;;;5008858;28;1122;-75
2022/11/02 02:32:17;;;;;;;;;;;;;;;;;;5009555;28;1221;-75
2022/11/02 02:34:48;;;;;;;;;;;;;;;;;;5009052;28;1224;-75
2022/11/02 02:37:17;;;;;;;;;;;;;;;;;;5009695;28;1290;-75
2022/11/02 02:39:48;;;;;;;;;;;;;;;;;;5008992;28;1303;-75
2022/11/02 02:42:32;;;;;;;;;;;;;;;;;;5009475;28;1886;-71
2022/11/02 02:45:04;;;;;;;;;;;;;;;;;;5010581;28;884;-71
2022/11/02 02:47:31;;;;;;;;;;;;;;;;;;5009386;28;1355;-71
2022/11/02 02:50:02;;;;;;;;;;;;;;;;;;5009139;28;1353;-71
2022/11/02 02:52:31;;;;;;;;;;;;;;;;;;5009213;28;989;-71
2022/11/02 02:54:58;;;;;;;;;;;;;;;;;;5010439;28;1084;-71
2022/11/02 02:57:26;;;;;;;;;;;;;;;;;;5010674;28;838;-71
2022/11/02 02:59:51;;;;;;;;;;;;;;;;;;5008425;28;1152;-71
2022/11/02 03:02:16;;;;;;;;;;;;;;;;;;5009297;28;1915;-71
2022/11/02 03:04:41;;;;;;;;;;;;;;;;;;5009775;28;1274;-71
2022/11/02 03:07:08;;;;;;;;;;;;;;;;;;5009676;28;1097;-71
2022/11/02 03:09:38;;;;;;;;;;;;;;;;;;5010586;28;825;-71
2022/11/02 03:12:30;;;;;;;;;;;;;;;;;;5011122;28;838;-71
2022/11/02 03:14:58;;;;;;;;;;;;;;;;;;5007964;28;1090;-71
2022/11/02 03:17:29;;;;;;;;;;;;;;;;;;5010471;28;1217;-71
2022/11/02 03:20:02;;;;;;;;;;;;;;;;;;5009880;28;1295;-71
2022/11/02 03:22:41;;;;;;;;;;;;;;;;;;5011007;28;1975;-71
2022/11/02 03:25:12;;;;;;;;;;;;;;;;;;5010893;28;884;-71
2022/11/02 03:27:41;;;;;;;;;;;;;;;;;;5025200;28;746;-71
2022/11/02 03:30:14;;;;;;;;;;;;;;;;;;5008521;28;1191;-71
2022/11/02 03:32:40;;;;;;;;;;;;;;;;;;5008736;28;873;-71
2022/11/02 03:35:09;;;;;;;;;;;;;;;;;;5008671;28;1363;-71
2022/11/02 03:37:38;;;;;;;;;;;;;;;;;;5024817;28;1552;-70
2022/11/02 03:40:06;;;;;;;;;;;;;;;;;;5011392;28;881;-71
2022/11/02 03:42:33;;;;;;;;;;;;;;;;;;5012502;28;1957;-71
2022/11/02 03:45:01;;;;;;;;;;;;;;;;;;5013894;28;841;-71
2022/11/02 03:47:30;;;;;;;;;;;;;;;;;;5013918;28;916;-71
2022/11/02 03:49:56;;;;;;;;;;;;;;;;;;5021179;28;1158;-71
2022/11/02 03:52:24;;;;;;;;;;;;;;;;;;5015845;28;1298;-71
2022/11/02 03:55:04;;;;;;;;;;;;;;;;;;5032811;28;932;-71
2022/11/02 03:57:45;;;;;;;;;;;;;;;;;;5015928;28;1209;-71
2022/11/02 04:00:12;;;;;;;;;;;;;;;;;;5015488;28;1339;-70
2022/11/02 04:02:39;;;;;;;;;;;;;;;;;;5033540;28;1972;-70
2022/11/02 04:05:05;;;;;;;;;;;;;;;;;;5033426;28;907;-70
2022/11/02 04:08:19;;;;;;;;;;;;;;;;;;5033634;28;928;-70
2022/11/02 04:10:18;;;;;;;;;;;;;;;;;;5033299;28;1074;-70
2022/11/02 04:15:27;;;;;;;;;;;;;;;;;;5032778;28;651;-71
2022/11/02 04:20:36;;;;;;;;;;;;;;;;;;5033183;28;641;-70
2022/11/02 04:25:45;;;;;;;;;;;;;;;;;;5032869;28;715;-70
2022/11/02 04:28:11;;;;;;;;;;;;;;;;;;5015801;28;1263;-70
2022/11/02 04:30:36;;;;;;;;;;;;;;;;;;5015350;28;1225;-71
2022/11/02 04:35:45;;;;;;;;;;;;;;;;;;5032242;28;674;-71
2022/11/02 04:41:40;;;;;;;;;;;;;;;;;;5033622;28;648;-71
2022/11/02 04:43:39;;;;;;;;;;;;;;;;;;5033276;28;1956;-71
2022/11/02 04:46:04;;;;;;;;;;;;;;;;;;5015702;28;1474;-71
2022/11/02 04:48:30;;;;;;;;;;;;;;;;;;5015569;28;1275;-70
2022/11/02 04:50:56;;;;;;;;;;;;;;;;;;5032540;28;1102;-71
2022/11/02 04:53:22;;;;;;;;;;;;;;;;;;5014876;28;1429;-71
2022/11/02 04:55:47;;;;;;;;;;;;;;;;;;5031093;28;892;-71
2022/11/02 04:58:12;;;;;;;;;;;;;;;;;;5032569;28;876;-70
2022/11/02 05:00:38;;;;;;;;;;;;;;;;;;5030877;28;920;-71
2022/11/02 05:03:04;;;;;;;;;;;;;;;;;;5014270;28;1927;-71
2022/11/02 05:05:29;;;;;;;;;;;;;;;;;;5014620;28;1388;-70
2022/11/02 05:07:55;;;;;;;;;;;;;;;;;;5030439;28;849;-70
2022/11/02 05:10:20;;;;;;;;;;;;;;;;;;5031074;28;885;-71
2022/11/02 05:12:45;;;;;;;;;;;;;;;;;;5014094;28;1328;-71
2022/11/02 05:15:10;;;;;;;;;;;;;;;;;;5031020;28;779;-71
2022/11/02 05:17:36;;;;;;;;;;;;;;;;;;5031861;28;876;-70
2022/11/02 05:20:01;;;;;;;;;;;;;;;;;;5030822;28;825;-70
2022/11/02 05:22:27;;;;;;;;;;;;;;;;;;5031951;28;1898;-70
2022/11/02 05:24:52;;;;;;;;;;;;;;;;;;5013665;28;1205;-71
2022/11/02 05:27:17;;;;;;;;;;;;;;;;;;5013809;28;1299;-71
2022/11/02 05:29:43;;;;;;;;;;;;;;;;;;5032271;28;818;-71
2022/11/02 05:32:08;;;;;;;;;;;;;;;;;;5031139;28;920;-71
2022/11/02 05:34:34;;;;;;;;;;;;;;;;;;5013718;28;1242;-71
2022/11/02 05:36:59;;;;;;;;;;;;;;;;;;5030329;28;833;-71
2022/11/02 05:39:24;;;;;;;;;;;;;;;;;;5031425;28;798;-71
2022/11/02 05:41:49;;;;;;;;;;;;;;;;;;5030989;28;1949;-71
2022/11/02 05:44:15;;;;;;;;;;;;;;;;;;5011671;28;1283;-70
2022/11/02 05:46:41;;;;;;;;;;;;;;;;;;5027609;28;1188;-71
2022/11/02 05:49:07;;;;;;;;;;;;;;;;;;5027690;28;1181;-71
2022/11/02 05:51:32;;;;;;;;;;;;;;;;;;5011101;28;1366;-71
2022/11/02 05:53:57;;;;;;;;;;;;;;;;;;5012373;28;1475;-71
2022/11/02 05:56:23;;;;;;;;;;;;;;;;;;5013464;28;1122;-71
2022/11/02 05:58:48;;;;;;;;;;;;;;;;;;5013119;28;1224;-71
2022/11/02 06:01:13;;;;;;;;;;;;;;;;;;5014129;28;1458;-71
2022/11/02 06:03:38;;;;;;;;;;;;;;;;;;5030446;28;1918;-71
2022/11/02 06:06:05;;;;;;;;;;;;;;;;;;5031788;28;1145;-71
2022/11/02 06:08:31;;;;;;;;;;;;;;;;;;5013842;28;1194;-70
2022/11/02 06:10:56;;;;;;;;;;;;;;;;;;5032534;28;825;-70
2022/11/02 06:13:22;;;;;;;;;;;;;;;;;;5013410;28;881;-71
2022/11/02 06:15:47;;;;;;;;;;;;;;;;;;5013269;28;1475;-71
2022/11/02 06:18:12;;;;;;;;;;;;;;;;;;5030009;28;884;-70
2022/11/02 06:20:38;;;;;;;;;;;;;;;;;;5013216;28;1224;-70
2022/11/02 06:23:03;;;;;;;;;;;;;;;;;;5012905;28;1902;-71
2022/11/02 06:25:29;;;;;;;;;;;;;;;;;;5013466;28;1206;-71
2022/11/02 06:27:55;;;;;;;;;;;;;;;;;;5029672;28;798;-71
2022/11/02 06:30:21;;;;;;;;;;;;;;;;;;5012731;28;750;-71
2022/11/02 06:32:47;;;;;;;;;;;;;;;;;;5030265;28;825;-71
2022/11/02 06:35:12;;;;;;;;;;;;;;;;;;5030500;28;917;-71
2022/11/02 06:37:37;;;;;;;;;;;;;;;;;;5012799;28;1109;-70
2022/11/02 06:40:03;;;;;;;;;;;;;;;;;;5029935;28;798;-71
2022/11/02 06:42:28;;;;;;;;;;;;;;;;;;5012758;28;1878;-71
2022/11/02 06:44:54;;;;;;;;;;;;;;;;;;5030311;28;1090;-71
2022/11/02 06:47:19;;;;;;;;;;;;;;;;;;5013005;28;1149;-71
2022/11/02 06:49:44;;;;;;;;;;;;;;;;;;5012128;28;1203;-71
2022/11/02 06:52:10;;;;;;;;;;;;;;;;;;5012619;28;1312;-71
2022/11/02 06:54:35;;;;;;;;;;;;;;;;;;5012440;28;1225;-71
2022/11/02 06:57:00;;;;;;;;;;;;;;;;;;5012751;28;1110;-71
2022/11/02 06:59:26;;;;;;;;;;;;;;;;;;5012437;28;898;-71
2022/11/02 07:01:52;;;;;;;;;;;;;;;;;;5012194;28;1914;-71
2022/11/02 07:04:18;;;;;;;;;;;;;;;;;;5012631;28;730;-71
2022/11/02 07:06:43;;;;;;;;;;;;;;;;;;5030278;28;1065;-70
2022/11/02 07:09:08;;;;;;;;;;;;;;;;;;5012634;28;683;-71
2022/11/02 07:11:34;;;;;;;;;;;;;;;;;;5030765;28;806;-71
2022/11/02 07:13:59;;;;;;;;;;;;;;;;;;5030105;28;881;-71
2022/11/02 07:16:24;;;;;;;;;;;;;;;;;;5012422;28;1066;-71
2022/11/02 07:18:49;;;;;;;;;;;;;;;;;;5012413;28;1390;-71
2022/11/02 07:21:15;;;;;;;;;;;;;;;;;;5012521;28;1238;-71
2022/11/02 07:23:40;;;;;;;;;;;;;;;;;;5012158;28;1894;-71
2022/11/02 07:26:05;;;;;;;;;;;;;;;;;;5013031;28;1245;-71
2022/11/02 07:28:31;;;;;;;;;;;;;;;;;;5012513;28;1336;-71
2022/11/02 07:30:56;;;;;;;;;;;;;;;;;;5012442;28;838;-71
2022/11/02 07:33:21;;;;;;;;;;;;;;;;;;5029358;28;818;-71
2022/11/02 07:35:47;;;;;;;;;;;;;;;;;;5012985;28;1478;-71
2022/11/02 07:38:12;;;;;;;;;;;;;;;;;;5013605;28;1272;-70
2022/11/02 07:40:38;;;;;;;;;;;;;;;;;;5013305;28;872;-72
2022/11/02 07:43:04;;;;;;;;;;;;;;;;;;5012809;28;1905;-72
2022/11/02 07:45:29;;;;;;;;;;;;;;;;;;5029742;28;762;-72
2022/11/02 07:47:54;;;;;;;;;;;;;;;;;;5012231;28;738;-72
2022/11/02 07:50:21;;;;;;;;;;;;;;;;;;5029800;28;1232;-71
2022/11/02 07:52:47;;;;;;;;;;;;;;;;;;5011975;28;1248;-72
2022/11/02 07:55:14;;;;;;;;;;;;;;;;;;5012612;28;1175;-71
2022/11/02 07:57:39;;;;;;;;;;;;;;;;;;5030079;28;884;-71
2022/11/02 08:00:04;;;;;;;;;;;;;;;;;;5028953;28;908;-72
2022/11/02 08:02:30;;;;;;;;;;;;;;;;;;5011707;28;1965;-72
2022/11/02 08:04:55;;;;;;;;;;;;;;;;;;5028625;28;817;-71
2022/11/02 08:07:20;;;;;;;;;;;;;;;;;;5012015;28;1212;-72
2022/11/02 08:09:46;;;;;;;;;;;;;;;;;;5028455;28;856;-72
2022/11/02 08:12:11;;;;;;;;;;;;;;;;;;5012355;28;1119;-72
2022/11/02 08:14:36;;;;;;;;;;;;;;;;;;5028135;28;908;-71
2022/11/02 08:17:02;;;;;;;;;;;;;;;;;;5012650;28;1216;-71
2022/11/02 08:19:27;;;;;;;;;;;;;;;;;;5030041;28;936;-71
2022/11/02 08:21:54;;;;;;;;;;;;;;;;;;5029331;28;1902;-72
2022/11/02 08:24:20;;;;;;;;;;;;;;;;;;5030187;28;865;-71
2022/11/02 08:26:45;;;;;;;;;;;;;;;;;;5031507;28;924;-72
2022/11/02 08:29:13;;;;;;;;;;;;;;;;;;5032490;28;830;-75
2022/11/02 08:31:39;;;;;;;;;;;;;;;;;;5015297;28;1224;-75
2022/11/02 08:34:04;;;;;;;;;;;;;;;;;;5032021;28;841;-74
2022/11/02 08:36:29;;;;;;;;;;;;;;;;;;5033303;28;893;-75
2022/11/02 08:38:54;;;;;;;;;;;;;;;;;;5015021;28;1358;-75
2022/11/02 08:41:20;;;;;;;;;;;;;;;;;;5032430;28;865;-74
2022/11/02 08:43:45;;;;;;;;;;;;;;;;;;5033333;28;1994;-75
2022/11/02 08:46:10;;;;;;;;;;;;;;;;;;5015445;28;1105;-75
2022/11/02 08:48:36;;;;;;;;;;;;;;;;;;5015151;28;1209;-75
2022/11/02 08:51:01;;;;;;;;;;;;;;;;;;5033004;28;1078;-75
2022/11/02 08:53:27;;;;;;;;;;;;;;;;;;5033474;28;880;-75
2022/11/02 08:55:52;;;;;;;;;;;;;;;;;;5015106;28;1327;-75
2022/11/02 08:58:17;;;;;;;;;;;;;;;;;;5031984;28;908;-74
2022/11/02 09:00:43;;;;;;;;;;;;;;;;;;5015334;28;1224;-74
2022/11/02 09:03:10;;;;;;;;;;;;;;;;;;5032624;28;1905;-74
2022/11/02 09:05:37;;;;;;;;;;;;;;;;;;5016171;28;1463;-75
2022/11/02 09:08:03;;;;;;;;;;;;;;;;;;5033815;28;822;-75
2022/11/02 09:10:30;;;;;;;;;;;;;;;;;;5034004;28;845;-74
2022/11/02 09:12:57;;;;;;;;;;;;;;;;;;5014948;28;1178;-75
2022/11/02 09:15:22;;;;;;;;;;;;;;;;;;5032622;28;963;-75
2022/11/02 09:17:48;;;;;;;;;;;;;;;;;;5014777;28;931;-75
2022/11/02 09:20:14;;;;;;;;;;;;;;;;;;5032829;28;849;-75
2022/11/02 09:22:40;;;;;;;;;;;;;;;;;;5032466;28;1969;-75
2022/11/02 09:25:05;;;;;;;;;;;;;;;;;;5014889;28;1344;-75
2022/11/02 09:27:31;;;;;;;;;;;;;;;;;;5014731;28;1308;-75
2022/11/02 09:29:56;;;;;;;;;;;;;;;;;;5030666;28;968;-75
2022/11/02 09:32:21;;;;;;;;;;;;;;;;;;5032016;28;948;-75
2022/11/02 09:34:49;;;;;;;;;;;;;;;;;;5013167;28;1055;-75
2022/11/02 09:37:14;;;;;;;;;;;;;;;;;;5030516;28;919;-75
2022/11/02 09:39:42;;;;;;;;;;;;;;;;;;5012906;28;1320;-75
2022/11/02 09:42:13;;;;;;;;;;;;;;;;;;5032092;28;1906;-74
2022/11/02 09:44:47;;;;;;;;;;;;;;;;;;5031275;28;853;-75
2022/11/02 09:47:13;;;;;;;;;;;;;;;;;;5013671;28;1155;-75
2022/11/02 09:49:40;;;;;;;;;;;;;;;;;;5031333;28;1082;-75
2022/11/02 09:52:08;;;;;;;;;;;;;;;;;;5013997;28;870;-75
2022/11/02 09:54:34;;;;;;;;;;;;;;;;;;5031796;28;853;-75
2022/11/02 09:57:08;;;;;;;;;;;;;;;;;;5031245;28;825;-75
2022/11/02 09:59:33;;;;;;;;;;;;;;;;;;5013769;28;1399;-75
2022/11/02 10:02:13;;;;;;;;;;;;;;;;;;5030421;28;1902;-76
2022/11/02 10:04:56;;;;;;;;;;;;;;;;;;5030966;28;961;-75
2022/11/02 10:07:40;;;;;;;;;;;;;;;;;;5013964;28;1308;-75
2022/11/02 10:10:26;;;;;;;;;;;;;;;;;;5014352;28;1298;-71
2022/11/02 10:13:09;;;;;;;;;;;;;;;;;;5030360;28;1209;-71
2022/11/02 10:15:37;;;;;;;;;;;;;;;;;;5031359;28;971;-71
2022/11/02 10:18:04;;;;;;;;;;;;;;;;;;5013613;28;1233;-71
2022/11/02 10:20:36;;;;;;;;;;;;;;;;;;5013458;28;1244;-72
2022/11/02 10:23:05;;;;;;;;;;;;;;;;;;5031138;28;1969;-71
2022/11/02 10:25:32;;;;;;;;;;;;;;;;;;5031302;28;790;-72
2022/11/02 10:28:03;;;;;;;;;;;;;;;;;;5032131;28;908;-71
2022/11/02 10:30:28;;;;;;;;;;;;;;;;;;5032110;28;865;-72
2022/11/02 10:32:54;;;;;;;;;;;;;;;;;;5031566;28;900;-71
2022/11/02 10:35:19;;;;;;;;;;;;;;;;;;5013929;28;1197;-72
2022/11/02 10:37:54;;;;;;;;;;;;;;;;;;5030971;28;877;-71
2022/11/02 10:40:19;;;;;;;;;;;;;;;;;;5013276;28;1233;-71
2022/11/02 10:43:02;;;;;;;;;;;;;;;;;;5030360;28;1907;-71
2022/11/02 10:45:34;;;;;;;;;;;;;;;;;;5012814;28;1411;-71
2022/11/02 10:48:18;;;;;;;;;;;;;;;;;;5012234;28;1292;-71
2022/11/02 10:50:52;;;;;;;;;;;;;;;;;;5011748;28;1063;-71
2022/11/02 10:53:19;;;;;;;;;;;;;;;;;;5012758;28;1256;-71
2022/11/02 10:56:00;;;;;;;;;;;;;;;;;;5012760;28;1263;-72
2022/11/02 10:58:26;;;;;;;;;;;;;;;;;;5030699;28;873;-71
2022/11/02 11:01:02;;;;;;;;;;;;;;;;;;5012309;28;742;-72
2022/11/02 11:03:28;;;;;;;;;;;;;;;;;;5012648;28;1910;-72
2022/11/02 11:05:54;;;;;;;;;;;;;;;;;;5030239;28;910;-72
2022/11/02 11:08:29;;;;;;;;;;;;;;;;;;5030876;28;865;-71
2022/11/02 11:10:54;;;;;;;;;;;;;;;;;;5029658;28;817;-71
2022/11/02 11:13:21;;;;;;;;;;;;;;;;;;5012419;28;1265;-72
2022/11/02 11:15:50;;;;;;;;;;;;;;;;;;5012171;28;1196;-71
2022/11/02 11:18:17;;;;;;;;;;;;;;;;;;5030834;28;804;-72
2022/11/02 11:20:43;;;;;;;;;;;;;;;;;;5011589;28;1241;-72
2022/11/02 11:23:24;;;;;;;;;;;;;;;;;;5012550;28;1966;-72
2022/11/02 11:25:53;;;;;;;;;;;;;;;;;;5011831;28;1232;-72
2022/11/02 11:28:41;;;;;;;;;;;;;;;;;;5012693;28;1229;-72
2022/11/02 11:31:06;;;;;;;;;;;;;;;;;;5012489;28;1432;-72
2022/11/02 11:33:32;;;;;;;;;;;;;;;;;;5012528;28;1224;-72
2022/11/02 11:35:58;;;;;;;;;;;;;;;;;;5011822;28;766;-72
2022/11/02 11:38:26;;;;;;;;;;;;;;;;;;5012127;28;1185;-71
2022/11/02 11:40:56;;;;;;;;;;;;;;;;;;5011804;28;817;-72
2022/11/02 11:43:24;;;;;;;;;;;;;;;;;;5011952;28;1963;-71
2022/11/02 11:46:01;;;;;;;;;;;;;;;;;;5011850;28;1193;-71
2022/11/02 11:48:26;;;;;;;;;;;;;;;;;;5029868;28;1045;-71
2022/11/02 11:50:52;;;;;;;;;;;;;;;;;;5011603;28;1292;-71
2022/11/02 11:53:20;;;;;;;;;;;;;;;;;;5030408;28;864;-71
2022/11/02 11:55:47;;;;;;;;;;;;;;;;;;5012602;28;1248;-71
2022/11/02 11:58:17;;;;;;;;;;;;;;;;;;5030991;28;806;-70
2022/11/02 12:00:43;;;;;;;;;;;;;;;;;;5012659;28;783;-70
2022/11/02 12:03:12;;;;;;;;;;;;;;;;;;5035173;28;1914;-70
2022/11/02 12:06:10;;;;;;;;;;;;;;;;;;5034089;28;793;-70
2022/11/02 12:08:49;;;;;;;;;;;;;;;;;;4993800;28;1135;-70
2022/11/02 12:11:29;;;;;;;;;;;;;;;;;;5033899;28;861;-70
2022/11/02 12:14:01;;;;;;;;;;;;;;;;;;5015431;28;877;-70
2022/11/02 12:16:45;;;;;;;;;;;;;;;;;;5034126;28;849;-70
2022/11/02 12:19:34;;;;;;;;;;;;;;;;;;5015956;28;1248;-70
2022/11/02 12:22:06;;;;;;;;;;;;;;;;;;5015594;28;1953;-70
2022/11/02 12:25:01;;;;;;;;;;;;;;;;;;5033802;28;861;-70
2022/11/02 12:27:48;;;;;;;;;;;;;;;;;;5033493;28;857;-70
2022/11/02 12:30:14;;;;;;;;;;;;;;;;;;5026250;28;1211;-70
2022/11/02 12:32:39;;;;;;;;;;;;;;;;;;5015301;28;1217;-69
2022/11/02 12:35:18;;;;;;;;;;;;;;;;;;5015405;28;939;-72
2022/11/02 12:37:46;;;;;;;;;;;;;;;;;;5014411;28;1359;-70
2022/11/02 12:40:14;;;;;;;;;;;;;;;;;;5033482;28;801;-70
2022/11/02 12:42:50;;;;;;;;;;;;;;;;;;5014795;28;1894;-69
2022/11/02 12:45:24;;;;;;;;;;;;;;;;;;5015733;28;1378;-70
2022/11/02 12:47:57;;;;;;;;;;;;;;;;;;5014646;28;1186;-70
2022/11/02 12:50:28;;;;;;;;;;;;;;;;;;5011666;28;1178;-70
2022/11/02 12:52:57;;;;;;;;;;;;;;;;;;5011188;28;1304;-70
2022/11/02 12:55:31;;;;;;;;;;;;;;;;;;5012075;28;1216;-71
2022/11/02 12:58:02;;;;;;;;;;;;;;;;;;5011322;28;1173;-70
2022/11/02 13:00:30;;;;;;;;;;;;;;;;;;5013523;28;982;-70
2022/11/02 13:03:13;;;;;;;;;;;;;;;;;;5012358;28;1910;-71
2022/11/02 13:05:42;;;;;;;;;;;;;;;;;;5011925;28;1214;-71
2022/11/02 13:08:07;;;;;;;;;;;;;;;;;;5011730;28;1205;-71
2022/11/02 13:10:39;;;;;;;;;;;;;;;;;;5012833;28;904;-71
2022/11/02 13:13:11;;;;;;;;;;;;;;;;;;5010793;28;1200;-71
2022/11/02 13:15:37;;;;;;;;;;;;;;;;;;5011714;28;1200;-70
2022/11/02 13:18:11;;;;;;;;;;;;;;;;;;5012249;28;920;-70
2022/11/02 13:20:37;;;;;;;;;;;;;;;;;;5011532;28;1283;-70
2022/11/02 13:23:06;;;;;;;;;;;;;;;;;;5010634;28;1905;-70
2022/11/02 13:25:41;;;;;;;;;;;;;;;;;;5011319;28;908;-70
2022/11/02 13:28:12;;;;;;;;;;;;;;;;;;5012633;28;877;-70
2022/11/02 13:30:39;;;;;;;;;;;;;;;;;;5012786;28;904;-70
2022/11/02 13:33:13;;;;;;;;;;;;;;;;;;5011307;28;1346;-71
2022/11/02 13:35:42;;;;;;;;;;;;;;;;;;5012943;28;897;-71
2022/11/02 13:38:19;;;;;;;;;;;;;;;;;;5013954;28;988;-71
2022/11/02 13:40:53;;;;;;;;;;;;;;;;;;5011539;28;1240;-71
2022/11/02 13:43:18;;;;;;;;;;;;;;;;;;5013302;28;1959;-71
2022/11/02 13:45:47;;;;;;;;;;;;;;;;;;5012625;28;1060;-71
2022/11/02 13:48:24;;;;;;;;;;;;;;;;;;5011495;28;1331;-71
2022/11/02 13:50:52;;;;;;;;;;;;;;;;;;5024482;28;1384;-70
2022/11/02 13:53:29;;;;;;;;;;;;;;;;;;5014555;28;1244;-70
2022/11/02 13:55:56;;;;;;;;;;;;;;;;;;5031789;28;826;-70
2022/11/02 13:58:26;;;;;;;;;;;;;;;;;;5013693;28;1208;-70
2022/11/02 14:00:54;;;;;;;;;;;;;;;;;;5030979;28;849;-70
2022/11/02 14:03:25;;;;;;;;;;;;;;;;;;5031881;28;1983;-71
2022/11/02 14:05:56;;;;;;;;;;;;;;;;;;5031138;28;813;-70
2022/11/02 14:08:29;;;;;;;;;;;;;;;;;;5014058;28;1342;-70
2022/11/02 14:11:20;;;;;;;;;;;;;;;;;;5031139;28;857;-70
2022/11/02 14:13:57;;;;;;;;;;;;;;;;;;5011070;28;1547;-71
2022/11/02 14:16:44;;;;;;;;;;;;;;;;;;5013682;28;1283;-70
2022/11/02 14:19:15;;;;;;;;;;;;;;;;;;5031395;28;888;-70
2022/11/02 14:21:43;;;;;;;;;;;;;;;;;;5031673;28;977;-70
2022/11/02 14:24:27;;;;;;;;;;;;;;;;;;5012500;28;1909;-70
2022/11/02 14:26:53;;;;;;;;;;;;;;;;;;5012545;28;1093;-70
2022/11/02 14:29:38;;;;;;;;;;;;;;;;;;5031853;28;920;-69
2022/11/02 14:32:09;;;;;;;;;;;;;;;;;;5030906;28;924;-69
2022/11/02 14:34:48;;;;;;;;;;;;;;;;;;5013958;28;1466;-69
2022/11/02 14:37:28;;;;;;;;;;;;;;;;;;5017010;28;685;-73
2022/11/02 14:40:12;;;;;;;;;;;;;;;;;;5043708;28;845;-73
2022/11/02 14:42:37;;;;;;;;;;;;;;;;;;5035283;28;1890;-74
2022/11/02 14:45:21;;;;;;;;;;;;;;;;;;5035613;28;806;-73
2022/11/02 14:47:47;;;;;;;;;;;;;;;;;;5018493;28;1184;-74
2022/11/02 14:50:17;;;;;;;;;;;;;;;;;;5015962;28;1493;-74
2022/11/02 14:52:53;;;;;;;;;;;;;;;;;;5016647;28;1034;-73
2022/11/02 14:55:18;;;;;;;;;;;;;;;;;;5016445;28;932;-73
2022/11/02 14:57:51;;;;;;;;;;;;;;;;;;5013904;28;1347;-74
2022/11/02 15:00:16;;;;;;;;;;;;;;;;;;5014149;28;1231;-73
2022/11/02 15:02:41;;;;;;;;;;;;;;;;;;5014880;28;1887;-73
2022/11/02 15:05:07;;;;;;;;;;;;;;;;;;5014081;28;1311;-73
2022/11/02 15:07:39;;;;;;;;;;;;;;;;;;5014298;28;1374;-73
2022/11/02 15:10:16;;;;;;;;;;;;;;;;;;5015053;28;880;-74
2022/11/02 15:12:48;;;;;;;;;;;;;;;;;;5014183;28;1295;-74
2022/11/02 15:15:29;;;;;;;;;;;;;;;;;;5027982;28;1165;-75
2022/11/02 15:17:57;;;;;;;;;;;;;;;;;;5011556;28;1275;-74
2022/11/02 15:20:27;;;;;;;;;;;;;;;;;;5012196;28;898;-73
2022/11/02 15:23:13;;;;;;;;;;;;;;;;;;5011173;28;1968;-74
2022/11/02 15:25:39;;;;;;;;;;;;;;;;;;5011216;28;900;-74
2022/11/02 15:28:13;;;;;;;;;;;;;;;;;;5010704;28;841;-74
2022/11/02 15:30:48;;;;;;;;;;;;;;;;;;5010099;28;1327;-74
2022/11/02 15:33:25;;;;;;;;;;;;;;;;;;5009535;28;1141;-75
2022/11/02 15:35:52;;;;;;;;;;;;;;;;;;5013879;28;880;-74
2022/11/02 15:38:20;;;;;;;;;;;;;;;;;;5013925;28;1534;-74
2022/11/02 15:41:03;;;;;;;;;;;;;;;;;;5015981;28;821;-74
2022/11/02 15:43:31;;;;;;;;;;;;;;;;;;5013879;28;3615;-74
2022/11/02 15:46:15;;;;;;;;;;;;;;;;;;5012896;28;3711;-74
2022/11/02 15:49:02;;;;;;;;;;;;;;;;;;5015501;28;908;-74
2022/11/02 15:51:27;;;;;;;;;;;;;;;;;;5010428;28;1321;-74
2022/11/02 15:54:28;;;;;;;;;;;;;;;;;;4996108;28;821;-75
2022/11/02 15:56:59;;;;;;;;;;;;;;;;;;4915497;29;1139;-74
2022/11/02 15:59:57;;;;;;;;;;;;;;;;;;4980136;28;1251;-74
2022/11/02 16:02:27;;;;;;;;;;;;;;;;;;4956145;28;3795;-74
2022/11/02 16:05:00;;;;;;;;;;;;;;;;;;5009977;28;4537;-74
2022/11/02 16:07:25;;;;;;;;;;;;;;;;;;5021014;28;3422;-74
2022/11/02 16:09:51;;;;;;;;;;;;;;;;;;5027468;28;1525;-74
2022/11/02 16:12:17;;;;;;;;;;;;;;;;;;4998827;28;1002;-74
2022/11/02 16:14:43;;;;;;;;;;;;;;;;;;5014465;28;4362;-76
2022/11/02 16:17:19;;;;;;;;;;;;;;;;;;5013387;28;3641;-76
2022/11/02 16:19:44;;;;;;;;;;;;;;;;;;5011645;28;3272;-76
2022/11/02 16:22:11;;;;;;;;;;;;;;;;;;5012452;28;1902;-76
2022/11/02 16:24:39;;;;;;;;;;;;;;;;;;5011275;28;4524;-76
2022/11/02 16:27:08;;;;;;;;;;;;;;;;;;5008828;28;4347;-76
2022/11/02 16:29:34;;;;;;;;;;;;;;;;;;5011492;28;3654;-75
2022/11/02 16:32:01;;;;;;;;;;;;;;;;;;5028777;28;1537;-71
2022/11/02 16:34:29;;;;;;;;;;;;;;;;;;5011250;28;4426;-71
2022/11/02 16:36:54;;;;;;;;;;;;;;;;;;5010982;28;4267;-71
2022/11/02 16:39:24;;;;;;;;;;;;;;;;;;5013502;28;3632;-71
2022/11/02 16:41:56;;;;;;;;;;;;;;;;;;5000186;28;4494;-71
2022/11/02 16:44:28;;;;;;;;;;;;;;;;;;4999324;28;4273;-71
2022/11/02 16:46:56;;;;;;;;;;;;;;;;;;5011262;28;3538;-70
2022/11/02 16:49:22;;;;;;;;;;;;;;;;;;5014882;28;1105;-71
2022/11/02 16:51:49;;;;;;;;;;;;;;;;;;5031461;28;3256;-71
2022/11/02 16:54:24;;;;;;;;;;;;;;;;;;5015890;28;1194;-70
2022/11/02 16:56:51;;;;;;;;;;;;;;;;;;5015361;28;1382;-71
2022/11/02 16:59:16;;;;;;;;;;;;;;;;;;5015711;28;1368;-72
2022/11/02 17:01:43;;;;;;;;;;;;;;;;;;5031544;28;1184;-72
2022/11/02 17:04:15;;;;;;;;;;;;;;;;;;5014528;28;1910;-72
2022/11/02 17:06:41;;;;;;;;;;;;;;;;;;5015328;28;809;-72
2022/11/02 17:09:18;;;;;;;;;;;;;;;;;;5032588;28;790;-72
2022/11/02 17:11:44;;;;;;;;;;;;;;;;;;5015044;28;1213;-72
2022/11/02 17:14:10;;;;;;;;;;;;;;;;;;5030823;28;1276;-72
2022/11/02 17:16:35;;;;;;;;;;;;;;;;;;5031448;28;1506;-71
2022/11/02 17:19:03;;;;;;;;;;;;;;;;;;5047650;28;1244;-72
2022/11/02 17:21:29;;;;;;;;;;;;;;;;;;5031397;28;1130;-72
2022/11/02 17:23:55;;;;;;;;;;;;;;;;;;5031560;28;1902;-72
2022/11/02 17:26:20;;;;;;;;;;;;;;;;;;5014598;28;1288;-72
2022/11/02 17:28:46;;;;;;;;;;;;;;;;;;5014118;28;1216;-72
2022/11/02 17:31:24;;;;;;;;;;;;;;;;;;5014083;28;1165;-71
2022/11/02 17:33:50;;;;;;;;;;;;;;;;;;5014615;28;1329;-71
2022/11/02 17:36:15;;;;;;;;;;;;;;;;;;5014380;28;1605;-71